sensor_id;sensor_type;location;lat;lon;timestamp;temperature;humidity
82782;DHT22;72517;47.260;11.422;2023-10-19T00:00:52;14.80;55.30
82782;DHT22;72517;47.260;11.422;2023-10-19T00:03:21;14.90;55.50
82782;DHT22;72517;47.260;11.422;2023-10-19T00:05:49;15.00;55.30
82782;DHT22;72517;47.260;11.422;2023-10-19T00:08:16;15.00;54.00
82782;DHT22;72517;47.260;11.422;2023-10-19T00:10:47;14.80;53.20
82782;DHT22;72517;47.260;11.422;2023-10-19T00:13:19;14.60;54.50
82782;DHT22;72517;47.260;11.422;2023-10-19T00:15:45;14.50;55.00
82782;DHT22;72517;47.260;11.422;2023-10-19T00:18:17;14.40;54.60
82782;DHT22;72517;47.260;11.422;2023-10-19T00:20:53;14.30;55.10
82782;DHT22;72517;47.260;11.422;2023-10-19T00:23:25;14.30;55.10
82782;DHT22;72517;47.260;11.422;2023-10-19T00:25:55;14.40;54.70
82782;DHT22;72517;47.260;11.422;2023-10-19T00:28:22;14.40;54.50
82782;DHT22;72517;47.260;11.422;2023-10-19T00:30:48;14.30;54.80
82782;DHT22;72517;47.260;11.422;2023-10-19T00:33:19;14.20;55.10
82782;DHT22;72517;47.260;11.422;2023-10-19T00:35:48;14.10;54.60
82782;DHT22;72517;47.260;11.422;2023-10-19T00:38:24;14.00;54.60
82782;DHT22;72517;47.260;11.422;2023-10-19T00:41:06;13.90;55.50
82782;DHT22;72517;47.260;11.422;2023-10-19T00:43:41;13.60;56.30
82782;DHT22;72517;47.260;11.422;2023-10-19T00:46:14;13.40;56.80
82782;DHT22;72517;47.260;11.422;2023-10-19T00:48:50;13.30;57.50
82782;DHT22;72517;47.260;11.422;2023-10-19T00:51:21;13.10;57.80
82782;DHT22;72517;47.260;11.422;2023-10-19T00:54:16;13.00;58.00
82782;DHT22;72517;47.260;11.422;2023-10-19T00:56:51;13.00;58.00
82782;DHT22;72517;47.260;11.422;2023-10-19T00:59:22;13.00;58.20
82782;DHT22;72517;47.260;11.422;2023-10-19T01:01:52;13.10;58.40
82782;DHT22;72517;47.260;11.422;2023-10-19T01:04:22;13.10;58.20
82782;DHT22;72517;47.260;11.422;2023-10-19T01:06:50;13.30;58.00
82782;DHT22;72517;47.260;11.422;2023-10-19T01:09:34;13.30;57.70
82782;DHT22;72517;47.260;11.422;2023-10-19T01:12:02;13.30;57.30
82782;DHT22;72517;47.260;11.422;2023-10-19T01:17:36;13.30;57.10
82782;DHT22;72517;47.260;11.422;2023-10-19T01:20:09;13.40;57.10
82782;DHT22;72517;47.260;11.422;2023-10-19T01:23:13;13.40;57.10
82782;DHT22;72517;47.260;11.422;2023-10-19T01:28:30;13.30;57.50
82782;DHT22;72517;47.260;11.422;2023-10-19T01:33:32;13.50;58.10
82782;DHT22;72517;47.260;11.422;2023-10-19T01:36:01;13.50;57.80
82782;DHT22;72517;47.260;11.422;2023-10-19T01:38:40;13.40;57.90
82782;DHT22;72517;47.260;11.422;2023-10-19T01:41:08;13.30;58.10
82782;DHT22;72517;47.260;11.422;2023-10-19T01:43:42;13.30;59.30
82782;DHT22;72517;47.260;11.422;2023-10-19T01:46:11;13.30;59.30
82782;DHT22;72517;47.260;11.422;2023-10-19T01:48:38;13.30;58.90
82782;DHT22;72517;47.260;11.422;2023-10-19T01:51:07;13.40;58.90
82782;DHT22;72517;47.260;11.422;2023-10-19T01:53:39;13.40;58.10
82782;DHT22;72517;47.260;11.422;2023-10-19T01:56:12;13.40;58.10
82782;DHT22;72517;47.260;11.422;2023-10-19T01:58:39;13.30;58.30
82782;DHT22;72517;47.260;11.422;2023-10-19T02:01:07;13.10;58.20
82782;DHT22;72517;47.260;11.422;2023-10-19T02:03:35;13.10;58.80
82782;DHT22;72517;47.260;11.422;2023-10-19T02:06:02;13.10;59.10
82782;DHT22;72517;47.260;11.422;2023-10-19T02:08:36;13.00;58.90
82782;DHT22;72517;47.260;11.422;2023-10-19T02:11:08;13.00;59.10
82782;DHT22;72517;47.260;11.422;2023-10-19T02:13:47;13.10;59.10
82782;DHT22;72517;47.260;11.422;2023-10-19T02:16:15;13.00;59.10
82782;DHT22;72517;47.260;11.422;2023-10-19T02:18:44;12.90;59.10
82782;DHT22;72517;47.260;11.422;2023-10-19T02:21:11;12.90;59.60
82782;DHT22;72517;47.260;11.422;2023-10-19T02:23:39;12.90;59.40
82782;DHT22;72517;47.260;11.422;2023-10-19T02:26:09;12.90;59.60
82782;DHT22;72517;47.260;11.422;2023-10-19T02:28:38;13.00;59.70
82782;DHT22;72517;47.260;11.422;2023-10-19T02:31:05;13.10;58.80
82782;DHT22;72517;47.260;11.422;2023-10-19T02:33:42;13.10;59.00
82782;DHT22;72517;47.260;11.422;2023-10-19T02:36:13;13.10;59.30
82782;DHT22;72517;47.260;11.422;2023-10-19T02:38:42;13.00;59.30
82782;DHT22;72517;47.260;11.422;2023-10-19T02:41:17;13.00;59.40
82782;DHT22;72517;47.260;11.422;2023-10-19T02:43:45;12.90;59.80
82782;DHT22;72517;47.260;11.422;2023-10-19T02:46:13;12.90;60.20
82782;DHT22;72517;47.260;11.422;2023-10-19T02:48:45;12.70;61.30
82782;DHT22;72517;47.260;11.422;2023-10-19T02:51:13;12.60;61.10
82782;DHT22;72517;47.260;11.422;2023-10-19T02:53:40;12.60;61.50
82782;DHT22;72517;47.260;11.422;2023-10-19T02:56:12;12.60;61.60
82782;DHT22;72517;47.260;11.422;2023-10-19T02:58:42;12.60;61.50
82782;DHT22;72517;47.260;11.422;2023-10-19T03:01:16;12.60;61.40
82782;DHT22;72517;47.260;11.422;2023-10-19T03:03:50;12.60;61.80
82782;DHT22;72517;47.260;11.422;2023-10-19T03:06:22;12.70;61.70
82782;DHT22;72517;47.260;11.422;2023-10-19T03:08:50;12.70;61.70
82782;DHT22;72517;47.260;11.422;2023-10-19T03:11:26;12.80;61.50
82782;DHT22;72517;47.260;11.422;2023-10-19T03:13:54;12.90;61.40
82782;DHT22;72517;47.260;11.422;2023-10-19T03:16:21;13.00;60.80
82782;DHT22;72517;47.260;11.422;2023-10-19T03:18:49;13.00;60.90
82782;DHT22;72517;47.260;11.422;2023-10-19T03:21:16;13.10;60.80
82782;DHT22;72517;47.260;11.422;2023-10-19T03:23:44;13.10;60.60
82782;DHT22;72517;47.260;11.422;2023-10-19T03:26:11;13.20;60.60
82782;DHT22;72517;47.260;11.422;2023-10-19T03:28:53;13.10;60.60
82782;DHT22;72517;47.260;11.422;2023-10-19T03:31:24;13.10;60.80
82782;DHT22;72517;47.260;11.422;2023-10-19T03:33:52;13.00;60.90
82782;DHT22;72517;47.260;11.422;2023-10-19T03:36:25;12.90;61.30
82782;DHT22;72517;47.260;11.422;2023-10-19T03:38:53;12.90;61.60
82782;DHT22;72517;47.260;11.422;2023-10-19T03:41:21;12.80;61.50
82782;DHT22;72517;47.260;11.422;2023-10-19T03:43:55;12.80;61.30
82782;DHT22;72517;47.260;11.422;2023-10-19T03:46:23;12.80;61.60
82782;DHT22;72517;47.260;11.422;2023-10-19T03:48:55;12.80;62.00
82782;DHT22;72517;47.260;11.422;2023-10-19T03:51:27;12.80;62.30
82782;DHT22;72517;47.260;11.422;2023-10-19T03:54:05;12.80;62.50
82782;DHT22;72517;47.260;11.422;2023-10-19T03:56:51;12.80;62.80
82782;DHT22;72517;47.260;11.422;2023-10-19T03:59:18;12.80;62.60
82782;DHT22;72517;47.260;11.422;2023-10-19T04:01:45;12.70;62.70
82782;DHT22;72517;47.260;11.422;2023-10-19T04:04:13;12.70;63.00
82782;DHT22;72517;47.260;11.422;2023-10-19T04:06:42;12.80;63.10
82782;DHT22;72517;47.260;11.422;2023-10-19T04:09:13;12.80;63.10
82782;DHT22;72517;47.260;11.422;2023-10-19T04:11:43;12.80;63.20
82782;DHT22;72517;47.260;11.422;2023-10-19T04:14:15;12.80;63.20
82782;DHT22;72517;47.260;11.422;2023-10-19T04:16:43;12.90;63.10
82782;DHT22;72517;47.260;11.422;2023-10-19T04:19:11;13.00;63.00
82782;DHT22;72517;47.260;11.422;2023-10-19T04:21:38;13.00;62.70
82782;DHT22;72517;47.260;11.422;2023-10-19T04:24:07;13.00;62.70
82782;DHT22;72517;47.260;11.422;2023-10-19T04:26:35;13.00;62.60
82782;DHT22;72517;47.260;11.422;2023-10-19T04:29:04;13.00;62.40
82782;DHT22;72517;47.260;11.422;2023-10-19T04:31:36;13.00;62.40
82782;DHT22;72517;47.260;11.422;2023-10-19T04:34:06;13.00;62.80
82782;DHT22;72517;47.260;11.422;2023-10-19T04:36:34;12.90;62.70
82782;DHT22;72517;47.260;11.422;2023-10-19T04:39:01;12.80;62.70
82782;DHT22;72517;47.260;11.422;2023-10-19T04:41:28;12.70;63.30
82782;DHT22;72517;47.260;11.422;2023-10-19T04:43:55;12.70;63.90
82782;DHT22;72517;47.260;11.422;2023-10-19T04:46:23;12.70;64.40
82782;DHT22;72517;47.260;11.422;2023-10-19T04:48:50;12.70;64.20
82782;DHT22;72517;47.260;11.422;2023-10-19T04:51:17;12.60;64.10
82782;DHT22;72517;47.260;11.422;2023-10-19T04:53:44;12.60;64.60
82782;DHT22;72517;47.260;11.422;2023-10-19T04:56:11;12.60;65.00
82782;DHT22;72517;47.260;11.422;2023-10-19T04:58:38;12.60;65.30
82782;DHT22;72517;47.260;11.422;2023-10-19T05:01:05;12.80;65.80
82782;DHT22;72517;47.260;11.422;2023-10-19T05:03:32;13.00;64.90
82782;DHT22;72517;47.260;11.422;2023-10-19T05:05:59;13.10;64.40
82782;DHT22;72517;47.260;11.422;2023-10-19T05:08:26;13.10;64.30
82782;DHT22;72517;47.260;11.422;2023-10-19T05:10:55;13.10;64.10
82782;DHT22;72517;47.260;11.422;2023-10-19T05:13:25;13.10;64.10
82782;DHT22;72517;47.260;11.422;2023-10-19T05:15:54;13.10;64.40
82782;DHT22;72517;47.260;11.422;2023-10-19T05:18:22;13.10;64.10
82782;DHT22;72517;47.260;11.422;2023-10-19T05:20:49;13.10;64.30
82782;DHT22;72517;47.260;11.422;2023-10-19T05:23:21;13.10;63.70
82782;DHT22;72517;47.260;11.422;2023-10-19T05:25:50;13.20;63.50
82782;DHT22;72517;47.260;11.422;2023-10-19T05:28:18;13.20;63.40
82782;DHT22;72517;47.260;11.422;2023-10-19T05:30:47;13.20;63.80
82782;DHT22;72517;47.260;11.422;2023-10-19T05:33:15;13.10;63.70
82782;DHT22;72517;47.260;11.422;2023-10-19T05:35:49;13.10;64.00
82782;DHT22;72517;47.260;11.422;2023-10-19T05:38:16;13.00;64.20
82782;DHT22;72517;47.260;11.422;2023-10-19T05:40:44;12.90;64.90
82782;DHT22;72517;47.260;11.422;2023-10-19T05:43:12;12.90;64.30
82782;DHT22;72517;47.260;11.422;2023-10-19T05:45:39;12.80;64.40
82782;DHT22;72517;47.260;11.422;2023-10-19T05:48:06;12.70;65.10
82782;DHT22;72517;47.260;11.422;2023-10-19T05:50:36;12.50;65.70
82782;DHT22;72517;47.260;11.422;2023-10-19T05:53:03;12.50;65.90
82782;DHT22;72517;47.260;11.422;2023-10-19T05:55:31;12.50;66.20
82782;DHT22;72517;47.260;11.422;2023-10-19T05:57:58;12.50;66.20
82782;DHT22;72517;47.260;11.422;2023-10-19T06:00:25;12.60;66.30
82782;DHT22;72517;47.260;11.422;2023-10-19T06:02:52;12.60;66.50
82782;DHT22;72517;47.260;11.422;2023-10-19T06:05:20;12.60;66.40
82782;DHT22;72517;47.260;11.422;2023-10-19T06:07:48;12.50;66.60
82782;DHT22;72517;47.260;11.422;2023-10-19T06:10:20;12.50;67.00
82782;DHT22;72517;47.260;11.422;2023-10-19T06:12:51;12.50;67.60
82782;DHT22;72517;47.260;11.422;2023-10-19T06:15:19;12.40;67.90
82782;DHT22;72517;47.260;11.422;2023-10-19T06:17:47;12.50;68.10
82782;DHT22;72517;47.260;11.422;2023-10-19T06:20:15;12.50;67.90
82782;DHT22;72517;47.260;11.422;2023-10-19T06:22:53;12.50;68.10
82782;DHT22;72517;47.260;11.422;2023-10-19T06:25:22;12.50;68.30
82782;DHT22;72517;47.260;11.422;2023-10-19T06:27:51;12.60;68.00
82782;DHT22;72517;47.260;11.422;2023-10-19T06:30:20;12.70;68.20
82782;DHT22;72517;47.260;11.422;2023-10-19T06:32:56;12.70;67.70
82782;DHT22;72517;47.260;11.422;2023-10-19T06:35:26;12.80;67.50
82782;DHT22;72517;47.260;11.422;2023-10-19T06:37:55;12.90;67.00
82782;DHT22;72517;47.260;11.422;2023-10-19T06:40:21;12.90;67.00
82782;DHT22;72517;47.260;11.422;2023-10-19T06:42:49;12.90;67.10
82782;DHT22;72517;47.260;11.422;2023-10-19T06:45:17;12.90;66.40
82782;DHT22;72517;47.260;11.422;2023-10-19T06:47:48;13.00;66.50
82782;DHT22;72517;47.260;11.422;2023-10-19T06:50:20;13.10;66.60
82782;DHT22;72517;47.260;11.422;2023-10-19T06:52:48;13.10;66.60
82782;DHT22;72517;47.260;11.422;2023-10-19T06:55:16;13.10;66.70
82782;DHT22;72517;47.260;11.422;2023-10-19T06:57:48;13.00;67.20
82782;DHT22;72517;47.260;11.422;2023-10-19T07:00:16;13.10;67.20
82782;DHT22;72517;47.260;11.422;2023-10-19T07:02:46;13.10;66.70
82782;DHT22;72517;47.260;11.422;2023-10-19T07:05:14;13.10;66.80
82782;DHT22;72517;47.260;11.422;2023-10-19T07:07:44;13.20;66.40
82782;DHT22;72517;47.260;11.422;2023-10-19T07:10:12;13.20;66.30
82782;DHT22;72517;47.260;11.422;2023-10-19T07:12:42;13.20;66.20
82782;DHT22;72517;47.260;11.422;2023-10-19T07:15:09;13.20;66.60
82782;DHT22;72517;47.260;11.422;2023-10-19T07:17:42;13.30;66.80
82782;DHT22;72517;47.260;11.422;2023-10-19T07:20:11;13.30;66.40
82782;DHT22;72517;47.260;11.422;2023-10-19T07:22:48;13.30;66.70
82782;DHT22;72517;47.260;11.422;2023-10-19T07:25:14;13.40;66.40
82782;DHT22;72517;47.260;11.422;2023-10-19T07:27:46;13.50;66.50
82782;DHT22;72517;47.260;11.422;2023-10-19T07:30:13;13.60;66.40
82782;DHT22;72517;47.260;11.422;2023-10-19T07:32:41;13.60;66.50
82782;DHT22;72517;47.260;11.422;2023-10-19T07:35:08;13.60;66.50
82782;DHT22;72517;47.260;11.422;2023-10-19T07:37:35;13.70;66.70
82782;DHT22;72517;47.260;11.422;2023-10-19T07:40:04;13.80;66.20
82782;DHT22;72517;47.260;11.422;2023-10-19T07:42:31;13.80;66.10
82782;DHT22;72517;47.260;11.422;2023-10-19T07:45:00;13.90;65.70
82782;DHT22;72517;47.260;11.422;2023-10-19T07:47:27;14.10;65.60
82782;DHT22;72517;47.260;11.422;2023-10-19T07:49:54;14.10;65.20
82782;DHT22;72517;47.260;11.422;2023-10-19T07:52:22;14.30;64.80
82782;DHT22;72517;47.260;11.422;2023-10-19T07:54:49;14.40;64.10
82782;DHT22;72517;47.260;11.422;2023-10-19T07:57:16;14.50;64.10
82782;DHT22;72517;47.260;11.422;2023-10-19T07:59:44;14.50;64.00
82782;DHT22;72517;47.260;11.422;2023-10-19T08:02:13;14.70;63.60
82782;DHT22;72517;47.260;11.422;2023-10-19T08:04:40;14.70;63.00
82782;DHT22;72517;47.260;11.422;2023-10-19T08:07:07;15.20;63.20
82782;DHT22;72517;47.260;11.422;2023-10-19T08:09:35;16.20;62.10
82782;DHT22;72517;47.260;11.422;2023-10-19T08:12:02;17.00;59.40
82782;DHT22;72517;47.260;11.422;2023-10-19T08:14:31;17.20;57.40
82782;DHT22;72517;47.260;11.422;2023-10-19T08:16:56;17.70;56.70
82782;DHT22;72517;47.260;11.422;2023-10-19T08:19:23;19.30;55.10
82782;DHT22;72517;47.260;11.422;2023-10-19T08:21:50;22.20;51.80
82782;DHT22;72517;47.260;11.422;2023-10-19T08:24:17;24.10;47.20
82782;DHT22;72517;47.260;11.422;2023-10-19T08:26:46;25.30;43.70
82782;DHT22;72517;47.260;11.422;2023-10-19T08:29:13;26.10;42.10
82782;DHT22;72517;47.260;11.422;2023-10-19T08:31:43;27.60;40.20
82782;DHT22;72517;47.260;11.422;2023-10-19T08:34:14;29.20;37.70
82782;DHT22;72517;47.260;11.422;2023-10-19T08:36:41;29.00;36.20
82782;DHT22;72517;47.260;11.422;2023-10-19T08:39:09;28.40;36.20
82782;DHT22;72517;47.260;11.422;2023-10-19T08:41:39;27.60;36.40
82782;DHT22;72517;47.260;11.422;2023-10-19T08:44:07;26.70;37.10
82782;DHT22;72517;47.260;11.422;2023-10-19T08:46:44;25.90;38.00
82782;DHT22;72517;47.260;11.422;2023-10-19T08:49:14;26.40;38.80
82782;DHT22;72517;47.260;11.422;2023-10-19T08:51:44;26.80;37.40
82782;DHT22;72517;47.260;11.422;2023-10-19T08:54:14;28.60;37.70
82782;DHT22;72517;47.260;11.422;2023-10-19T08:56:42;28.60;35.30
82782;DHT22;72517;47.260;11.422;2023-10-19T08:59:10;30.20;35.50
82782;DHT22;72517;47.260;11.422;2023-10-19T09:01:38;31.80;34.00
82782;DHT22;72517;47.260;11.422;2023-10-19T09:04:05;34.20;32.90
82782;DHT22;72517;47.260;11.422;2023-10-19T09:06:35;35.70;30.70
82782;DHT22;72517;47.260;11.422;2023-10-19T09:09:16;37.20;29.50
82782;DHT22;72517;47.260;11.422;2023-10-19T09:11:45;39.30;28.60
82782;DHT22;72517;47.260;11.422;2023-10-19T09:14:14;42.00;28.00
82782;DHT22;72517;47.260;11.422;2023-10-19T09:16:55;43.50;26.30
82782;DHT22;72517;47.260;11.422;2023-10-19T09:22:03;45.10;25.10
82782;DHT22;72517;47.260;11.422;2023-10-19T09:24:34;46.50;24.70
82782;DHT22;72517;47.260;11.422;2023-10-19T09:27:04;47.60;24.10
82782;DHT22;72517;47.260;11.422;2023-10-19T09:29:31;48.30;23.50
82782;DHT22;72517;47.260;11.422;2023-10-19T09:32:01;48.90;23.30
82782;DHT22;72517;47.260;11.422;2023-10-19T09:34:30;49.00;22.90
82782;DHT22;72517;47.260;11.422;2023-10-19T09:36:59;49.20;22.70
82782;DHT22;72517;47.260;11.422;2023-10-19T09:39:31;49.00;23.40
82782;DHT22;72517;47.260;11.422;2023-10-19T09:42:10;49.80;22.80
82782;DHT22;72517;47.260;11.422;2023-10-19T09:44:42;50.50;22.50
82782;DHT22;72517;47.260;11.422;2023-10-19T09:47:29;51.30;22.40
82782;DHT22;72517;47.260;11.422;2023-10-19T09:49:57;51.30;22.00
82782;DHT22;72517;47.260;11.422;2023-10-19T09:52:25;47.30;21.80
82782;DHT22;72517;47.260;11.422;2023-10-19T09:56:02;44.20;23.00
82782;DHT22;72517;47.260;11.422;2023-10-19T09:58:15;41.30;24.00
82782;DHT22;72517;47.260;11.422;2023-10-19T10:00:47;37.60;25.40
82782;DHT22;72517;47.260;11.422;2023-10-19T10:03:50;34.60;27.00
82782;DHT22;72517;47.260;11.422;2023-10-19T10:06:28;32.20;28.60
82782;DHT22;72517;47.260;11.422;2023-10-19T10:08:55;30.50;30.40
82782;DHT22;72517;47.260;11.422;2023-10-19T10:11:26;29.40;32.00
82782;DHT22;72517;47.260;11.422;2023-10-19T10:13:56;28.60;32.60
82782;DHT22;72517;47.260;11.422;2023-10-19T10:16:25;28.20;33.60
82782;DHT22;72517;47.260;11.422;2023-10-19T10:18:59;27.80;34.50
82782;DHT22;72517;47.260;11.422;2023-10-19T10:21:27;27.30;34.70
82782;DHT22;72517;47.260;11.422;2023-10-19T10:23:55;26.90;35.40
82782;DHT22;72517;47.260;11.422;2023-10-19T10:27:01;26.60;36.40
82782;DHT22;72517;47.260;11.422;2023-10-19T10:29:28;26.30;36.90
82782;DHT22;72517;47.260;11.422;2023-10-19T10:31:57;26.10;37.20
82782;DHT22;72517;47.260;11.422;2023-10-19T10:37:05;25.60;37.80
82782;DHT22;72517;47.260;11.422;2023-10-19T10:39:34;25.50;38.60
82782;DHT22;72517;47.260;11.422;2023-10-19T10:42:06;25.30;39.50
82782;DHT22;72517;47.260;11.422;2023-10-19T10:44:44;25.10;39.70
82782;DHT22;72517;47.260;11.422;2023-10-19T10:47:20;24.90;39.10
82782;DHT22;72517;47.260;11.422;2023-10-19T10:49:52;24.90;39.10
82782;DHT22;72517;47.260;11.422;2023-10-19T10:54:56;25.20;39.90
82782;DHT22;72517;47.260;11.422;2023-10-19T10:57:23;25.50;39.80
82782;DHT22;72517;47.260;11.422;2023-10-19T11:02:36;25.40;39.10
82782;DHT22;72517;47.260;11.422;2023-10-19T11:05:15;25.50;38.80
82782;DHT22;72517;47.260;11.422;2023-10-19T11:08:06;26.10;38.70
82782;DHT22;72517;47.260;11.422;2023-10-19T11:10:33;29.20;37.80
82782;DHT22;72517;47.260;11.422;2023-10-19T11:13:12;33.90;33.00
82782;DHT22;72517;47.260;11.422;2023-10-19T11:15:49;36.40;29.50
82782;DHT22;72517;47.260;11.422;2023-10-19T11:18:36;37.10;28.50
82782;DHT22;72517;47.260;11.422;2023-10-19T11:21:09;36.30;28.10
82782;DHT22;72517;47.260;11.422;2023-10-19T11:26:02;35.40;27.80
82782;DHT22;72517;47.260;11.422;2023-10-19T11:28:31;34.00;28.60
82782;DHT22;72517;47.260;11.422;2023-10-19T11:31:18;33.80;28.90
82782;DHT22;72517;47.260;11.422;2023-10-19T11:33:46;35.30;29.80
82782;DHT22;72517;47.260;11.422;2023-10-19T11:36:16;37.70;28.00
82782;DHT22;72517;47.260;11.422;2023-10-19T11:38:48;40.90;26.70
82782;DHT22;72517;47.260;11.422;2023-10-19T11:41:17;43.30;25.50
82782;DHT22;72517;47.260;11.422;2023-10-19T11:43:48;45.50;24.70
82782;DHT22;72517;47.260;11.422;2023-10-19T11:46:16;47.50;23.70
82782;DHT22;72517;47.260;11.422;2023-10-19T11:48:44;49.30;23.20
82782;DHT22;72517;47.260;11.422;2023-10-19T11:51:12;50.10;23.00
82782;DHT22;72517;47.260;11.422;2023-10-19T11:53:41;52.10;22.20
82782;DHT22;72517;47.260;11.422;2023-10-19T11:56:09;48.50;22.30
82782;DHT22;72517;47.260;11.422;2023-10-19T11:58:38;46.50;23.30
82782;DHT22;72517;47.260;11.422;2023-10-19T12:01:08;48.00;23.30
82782;DHT22;72517;47.260;11.422;2023-10-19T12:03:38;49.10;22.20
82782;DHT22;72517;47.260;11.422;2023-10-19T12:06:06;50.00;22.50
82782;DHT22;72517;47.260;11.422;2023-10-19T12:08:37;50.50;22.00
82782;DHT22;72517;47.260;11.422;2023-10-19T12:11:04;51.40;21.90
82782;DHT22;72517;47.260;11.422;2023-10-19T12:13:41;52.60;21.60
82782;DHT22;72517;47.260;11.422;2023-10-19T12:16:09;53.10;21.50
82782;DHT22;72517;47.260;11.422;2023-10-19T12:18:38;54.10;21.20
82782;DHT22;72517;47.260;11.422;2023-10-19T12:21:07;53.00;21.30
82782;DHT22;72517;47.260;11.422;2023-10-19T12:23:39;52.40;21.10
82782;DHT22;72517;47.260;11.422;2023-10-19T12:26:06;50.30;21.70
82782;DHT22;72517;47.260;11.422;2023-10-19T12:28:40;50.30;21.60
82782;DHT22;72517;47.260;11.422;2023-10-19T12:31:08;49.40;21.20
82782;DHT22;72517;47.260;11.422;2023-10-19T12:33:36;45.20;22.10
82782;DHT22;72517;47.260;11.422;2023-10-19T12:36:04;42.20;23.70
82782;DHT22;72517;47.260;11.422;2023-10-19T12:38:49;41.90;24.00
82782;DHT22;72517;47.260;11.422;2023-10-19T12:41:16;39.90;24.40
82782;DHT22;72517;47.260;11.422;2023-10-19T12:43:43;37.00;26.20
82782;DHT22;72517;47.260;11.422;2023-10-19T12:46:11;35.60;26.50
82782;DHT22;72517;47.260;11.422;2023-10-19T12:48:39;33.00;28.40
82782;DHT22;72517;47.260;11.422;2023-10-19T12:51:06;31.40;29.30
82782;DHT22;72517;47.260;11.422;2023-10-19T12:53:34;31.10;29.90
82782;DHT22;72517;47.260;11.422;2023-10-19T12:56:03;30.00;30.80
82782;DHT22;72517;47.260;11.422;2023-10-19T12:58:30;29.10;31.70
82782;DHT22;72517;47.260;11.422;2023-10-19T13:00:57;28.00;32.80
82782;DHT22;72517;47.260;11.422;2023-10-19T13:03:25;28.30;33.70
82782;DHT22;72517;47.260;11.422;2023-10-19T13:05:56;28.30;32.60
82782;DHT22;72517;47.260;11.422;2023-10-19T13:08:24;26.60;34.40
82782;DHT22;72517;47.260;11.422;2023-10-19T13:10:53;26.10;35.20
82782;DHT22;72517;47.260;11.422;2023-10-19T13:13:19;25.50;36.10
82782;DHT22;72517;47.260;11.422;2023-10-19T13:15:49;25.00;37.00
82782;DHT22;72517;47.260;11.422;2023-10-19T13:18:16;24.40;38.00
82782;DHT22;72517;47.260;11.422;2023-10-19T13:20:47;24.00;38.50
82782;DHT22;72517;47.260;11.422;2023-10-19T13:23:14;23.70;39.00
82782;DHT22;72517;47.260;11.422;2023-10-19T13:25:42;23.90;39.50
82782;DHT22;72517;47.260;11.422;2023-10-19T13:28:16;24.00;39.70
82782;DHT22;72517;47.260;11.422;2023-10-19T13:30:47;24.10;39.30
82782;DHT22;72517;47.260;11.422;2023-10-19T13:33:14;24.80;39.10
82782;DHT22;72517;47.260;11.422;2023-10-19T13:35:43;25.40;38.30
82782;DHT22;72517;47.260;11.422;2023-10-19T13:38:11;26.20;37.80
82782;DHT22;72517;47.260;11.422;2023-10-19T13:40:39;26.60;36.70
82782;DHT22;72517;47.260;11.422;2023-10-19T13:43:08;27.20;36.10
82782;DHT22;72517;47.260;11.422;2023-10-19T13:45:40;27.50;35.90
82782;DHT22;72517;47.260;11.422;2023-10-19T13:48:08;27.10;35.90
82782;DHT22;72517;47.260;11.422;2023-10-19T13:50:40;26.80;37.00
82782;DHT22;72517;47.260;11.422;2023-10-19T13:53:08;26.50;37.00
82782;DHT22;72517;47.260;11.422;2023-10-19T13:55:35;26.10;37.30
82782;DHT22;72517;47.260;11.422;2023-10-19T13:58:03;25.80;38.60
82782;DHT22;72517;47.260;11.422;2023-10-19T14:00:29;25.50;39.50
82782;DHT22;72517;47.260;11.422;2023-10-19T14:03:04;25.20;39.40
82782;DHT22;72517;47.260;11.422;2023-10-19T14:05:38;24.90;38.90
82782;DHT22;72517;47.260;11.422;2023-10-19T14:08:06;24.60;39.60
82782;DHT22;72517;47.260;11.422;2023-10-19T14:10:34;24.40;39.80
82782;DHT22;72517;47.260;11.422;2023-10-19T14:13:02;24.40;40.30
82782;DHT22;72517;47.260;11.422;2023-10-19T14:15:30;24.40;40.40
82782;DHT22;72517;47.260;11.422;2023-10-19T14:18:00;24.50;40.50
82782;DHT22;72517;47.260;11.422;2023-10-19T14:20:29;24.40;40.10
82782;DHT22;72517;47.260;11.422;2023-10-19T14:22:59;24.40;41.00
82782;DHT22;72517;47.260;11.422;2023-10-19T14:25:26;24.40;40.80
82782;DHT22;72517;47.260;11.422;2023-10-19T14:27:55;24.40;40.60
82782;DHT22;72517;47.260;11.422;2023-10-19T14:30:27;24.50;41.00
82782;DHT22;72517;47.260;11.422;2023-10-19T14:32:55;24.60;40.80
82782;DHT22;72517;47.260;11.422;2023-10-19T14:35:23;24.60;40.00
82782;DHT22;72517;47.260;11.422;2023-10-19T14:37:53;24.70;40.10
82782;DHT22;72517;47.260;11.422;2023-10-19T14:40:22;24.70;40.80
82782;DHT22;72517;47.260;11.422;2023-10-19T14:42:51;24.80;40.60
82782;DHT22;72517;47.260;11.422;2023-10-19T14:45:19;24.70;40.70
82782;DHT22;72517;47.260;11.422;2023-10-19T14:47:50;24.60;40.00
82782;DHT22;72517;47.260;11.422;2023-10-19T14:50:17;24.20;40.10
82782;DHT22;72517;47.260;11.422;2023-10-19T14:52:46;23.90;40.70
82782;DHT22;72517;47.260;11.422;2023-10-19T14:55:14;23.70;41.30
82782;DHT22;72517;47.260;11.422;2023-10-19T14:57:43;23.60;42.00
82782;DHT22;72517;47.260;11.422;2023-10-19T15:00:11;23.40;41.80
82782;DHT22;72517;47.260;11.422;2023-10-19T15:02:44;23.30;42.90
82782;DHT22;72517;47.260;11.422;2023-10-19T15:05:11;23.00;42.30
82782;DHT22;72517;47.260;11.422;2023-10-19T15:07:51;22.90;42.90
82782;DHT22;72517;47.260;11.422;2023-10-19T15:10:24;22.90;43.50
82782;DHT22;72517;47.260;11.422;2023-10-19T15:12:52;22.80;43.60
82782;DHT22;72517;47.260;11.422;2023-10-19T15:15:19;22.70;43.60
82782;DHT22;72517;47.260;11.422;2023-10-19T15:17:46;22.70;43.90
82782;DHT22;72517;47.260;11.422;2023-10-19T15:20:16;22.60;43.10
82782;DHT22;72517;47.260;11.422;2023-10-19T15:22:44;22.60;43.30
82782;DHT22;72517;47.260;11.422;2023-10-19T15:25:13;22.60;44.20
82782;DHT22;72517;47.260;11.422;2023-10-19T15:27:44;22.60;43.10
82782;DHT22;72517;47.260;11.422;2023-10-19T15:30:12;22.50;43.20
82782;DHT22;72517;47.260;11.422;2023-10-19T15:32:41;22.40;43.30
82782;DHT22;72517;47.260;11.422;2023-10-19T15:35:10;22.40;43.70
82782;DHT22;72517;47.260;11.422;2023-10-19T15:37:40;22.30;43.70
82782;DHT22;72517;47.260;11.422;2023-10-19T15:40:09;22.30;43.80
82782;DHT22;72517;47.260;11.422;2023-10-19T15:42:41;22.20;43.10
82782;DHT22;72517;47.260;11.422;2023-10-19T15:45:12;22.10;43.00
82782;DHT22;72517;47.260;11.422;2023-10-19T15:47:40;22.00;43.60
82782;DHT22;72517;47.260;11.422;2023-10-19T15:50:08;21.90;43.60
82782;DHT22;72517;47.260;11.422;2023-10-19T15:52:35;21.80;43.90
82782;DHT22;72517;47.260;11.422;2023-10-19T15:55:11;21.70;43.90